sensor_id;sensor_type;location;lat;lon;timestamp;pressure;altitude;pressure_sealevel;temperature;humidity
62458;BME280;48509;52.122;5.250;2023-08-21T00:02:11;102288.0;;;18.63;100.0
62458;BME280;48509;52.122;5.250;2023-08-21T00:03:47;102292.0;;;18.53;100.0
62458;BME280;48509;52.122;5.250;2023-08-21T00:05:24;102298.0;;;18.48;100.0
62458;BME280;48509;52.122;5.250;2023-08-21T00:07:02;102300.0;;;18.53;100.0
62458;BME280;48509;52.122;5.250;2023-08-21T00:10:15;102303.0;;;18.52;100.0
62458;BME280;48509;52.122;5.250;2023-08-21T00:11:53;102307.0;;;18.5;100.0
62458;BME280;48509;52.122;5.250;2023-08-21T00:13:30;102311.0;;;18.48;100.0
62458;BME280;48509;52.122;5.250;2023-08-21T00:16:45;102308.0;;;18.61;100.0
62458;BME280;48509;52.122;5.250;2023-08-21T00:18:22;102312.0;;;18.59;100.0
62458;BME280;48509;52.122;5.250;2023-08-21T00:20:00;102307.0;;;18.61;100.0
62458;BME280;48509;52.122;5.250;2023-08-21T00:23:13;102303.0;;;18.68;100.0
62458;BME280;48509;52.122;5.250;2023-08-21T00:24:51;102311.0;;;18.66;100.0
62458;BME280;48509;52.122;5.250;2023-08-21T00:26:28;102312.0;;;18.63;100.0
62458;BME280;48509;52.122;5.250;2023-08-21T00:28:05;102313.0;;;18.64;100.0
62458;BME280;48509;52.122;5.250;2023-08-21T00:31:19;102313.0;;;18.61;100.0
62458;BME280;48509;52.122;5.250;2023-08-21T00:32:56;102305.0;;;18.63;100.0
62458;BME280;48509;52.122;5.250;2023-08-21T00:34:33;102305.0;;;18.68;100.0
62458;BME280;48509;52.122;5.250;2023-08-21T00:37:46;102301.0;;;18.7;100.0
62458;BME280;48509;52.122;5.250;2023-08-21T00:39:22;102305.0;;;18.72;100.0
62458;BME280;48509;52.122;5.250;2023-08-21T00:40:59;102302.0;;;18.7;100.0
62458;BME280;48509;52.122;5.250;2023-08-21T00:44:13;102298.0;;;18.78;100.0
62458;BME280;48509;52.122;5.250;2023-08-21T00:45:50;102301.0;;;18.81;100.0
62458;BME280;48509;52.122;5.250;2023-08-21T00:47:27;102293.0;;;18.87;100.0
62458;BME280;48509;52.122;5.250;2023-08-21T00:49:04;102291.0;;;18.72;100.0
62458;BME280;48509;52.122;5.250;2023-08-21T00:52:19;102292.0;;;18.68;100.0
62458;BME280;48509;52.122;5.250;2023-08-21T00:53:55;102293.0;;;18.68;100.0
62458;BME280;48509;52.122;5.250;2023-08-21T00:55:33;102295.0;;;18.68;100.0
62458;BME280;48509;52.122;5.250;2023-08-21T00:58:48;102289.0;;;18.68;100.0
62458;BME280;48509;52.122;5.250;2023-08-21T01:00:27;102284.0;;;18.64;100.0
62458;BME280;48509;52.122;5.250;2023-08-21T01:02:04;102290.0;;;18.63;100.0
62458;BME280;48509;52.122;5.250;2023-08-21T01:03:41;102289.0;;;18.62;100.0
62458;BME280;48509;52.122;5.250;2023-08-21T01:06:56;102289.0;;;18.64;100.0
62458;BME280;48509;52.122;5.250;2023-08-21T01:08:40;102288.0;;;18.62;100.0
62458;BME280;48509;52.122;5.250;2023-08-21T01:10:33;102285.0;;;18.63;100.0
62458;BME280;48509;52.122;5.250;2023-08-21T01:12:23;102284.0;;;18.63;100.0
62458;BME280;48509;52.122;5.250;2023-08-21T01:14:14;102286.0;;;18.64;100.0
62458;BME280;48509;52.122;5.250;2023-08-21T01:17:37;102289.0;;;18.57;100.0
62458;BME280;48509;52.122;5.250;2023-08-21T01:19:24;102286.0;;;18.56;100.0
62458;BME280;48509;52.122;5.250;2023-08-21T01:21:06;102291.0;;;18.52;100.0
62458;BME280;48509;52.122;5.250;2023-08-21T01:22:44;102291.0;;;18.45;100.0
62458;BME280;48509;52.122;5.250;2023-08-21T01:25:57;102286.0;;;18.36;100.0
62458;BME280;48509;52.122;5.250;2023-08-21T01:27:34;102287.0;;;18.36;100.0
62458;BME280;48509;52.122;5.250;2023-08-21T01:29:12;102293.0;;;18.31;100.0
62458;BME280;48509;52.122;5.250;2023-08-21T01:30:51;102295.0;;;18.32;100.0
62458;BME280;48509;52.122;5.250;2023-08-21T01:34:28;102294.0;;;18.31;100.0
62458;BME280;48509;52.122;5.250;2023-08-21T01:36:05;102297.0;;;18.36;100.0
62458;BME280;48509;52.122;5.250;2023-08-21T01:37:43;102299.0;;;18.36;100.0
62458;BME280;48509;52.122;5.250;2023-08-21T01:39:21;102299.0;;;18.34;100.0
62458;BME280;48509;52.122;5.250;2023-08-21T01:44:12;102293.0;;;18.5;100.0
62458;BME280;48509;52.122;5.250;2023-08-21T01:45:50;102290.0;;;18.37;100.0
62458;BME280;48509;52.122;5.250;2023-08-21T01:47:27;102295.0;;;18.36;100.0
62458;BME280;48509;52.122;5.250;2023-08-21T01:50:40;102298.0;;;18.38;100.0
62458;BME280;48509;52.122;5.250;2023-08-21T01:52:17;102301.0;;;18.43;100.0
62458;BME280;48509;52.122;5.250;2023-08-21T01:53:54;102300.0;;;18.39;100.0
62458;BME280;48509;52.122;5.250;2023-08-21T01:57:08;102299.0;;;18.41;100.0
62458;BME280;48509;52.122;5.250;2023-08-21T01:58:45;102300.0;;;18.41;100.0
62458;BME280;48509;52.122;5.250;2023-08-21T02:00:21;102305.0;;;18.41;100.0
62458;BME280;48509;52.122;5.250;2023-08-21T02:03:35;102301.0;;;18.41;100.0
62458;BME280;48509;52.122;5.250;2023-08-21T02:05:11;102300.0;;;18.45;100.0
62458;BME280;48509;52.122;5.250;2023-08-21T02:06:49;102299.0;;;18.43;100.0
62458;BME280;48509;52.122;5.250;2023-08-21T02:08:30;102298.0;;;18.45;100.0
62458;BME280;48509;52.122;5.250;2023-08-21T02:11:46;102298.0;;;18.45;100.0
62458;BME280;48509;52.122;5.250;2023-08-21T02:13:23;102299.0;;;18.37;100.0
62458;BME280;48509;52.122;5.250;2023-08-21T02:15:00;102297.0;;;18.41;100.0
62458;BME280;48509;52.122;5.250;2023-08-21T02:18:14;102297.0;;;18.41;100.0
62458;BME280;48509;52.122;5.250;2023-08-21T02:19:50;102294.0;;;18.61;100.0
62458;BME280;48509;52.122;5.250;2023-08-21T02:21:27;102301.0;;;18.5;100.0
62458;BME280;48509;52.122;5.250;2023-08-21T02:23:04;102299.0;;;18.39;100.0
62458;BME280;48509;52.122;5.250;2023-08-21T02:26:17;102302.0;;;18.32;100.0
62458;BME280;48509;52.122;5.250;2023-08-21T02:27:54;102303.0;;;18.22;100.0
62458;BME280;48509;52.122;5.250;2023-08-21T02:29:31;102302.0;;;18.18;100.0
62458;BME280;48509;52.122;5.250;2023-08-21T02:32:45;102303.0;;;18.11;100.0
62458;BME280;48509;52.122;5.250;2023-08-21T02:34:22;102305.0;;;18.09;100.0
62458;BME280;48509;52.122;5.250;2023-08-21T02:36:00;102305.0;;;18.03;100.0
62458;BME280;48509;52.122;5.250;2023-08-21T02:39:13;102308.0;;;18.09;100.0
62458;BME280;48509;52.122;5.250;2023-08-21T02:40:50;102302.0;;;18.0;100.0
62458;BME280;48509;52.122;5.250;2023-08-21T02:42:27;102302.0;;;17.91;100.0
62458;BME280;48509;52.122;5.250;2023-08-21T02:44:04;102296.0;;;17.89;100.0
62458;BME280;48509;52.122;5.250;2023-08-21T02:47:18;102299.0;;;17.87;100.0
62458;BME280;48509;52.122;5.250;2023-08-21T02:48:55;102294.0;;;17.81;100.0
62458;BME280;48509;52.122;5.250;2023-08-21T02:50:31;102296.0;;;17.79;100.0
62458;BME280;48509;52.122;5.250;2023-08-21T02:53:45;102300.0;;;17.81;100.0
62458;BME280;48509;52.122;5.250;2023-08-21T02:55:21;102305.0;;;17.75;100.0
62458;BME280;48509;52.122;5.250;2023-08-21T02:56:59;102301.0;;;17.77;100.0
62458;BME280;48509;52.122;5.250;2023-08-21T02:58:35;102303.0;;;17.89;100.0
62458;BME280;48509;52.122;5.250;2023-08-21T03:01:50;102295.0;;;17.86;100.0
62458;BME280;48509;52.122;5.250;2023-08-21T03:03:27;102295.0;;;17.84;100.0
62458;BME280;48509;52.122;5.250;2023-08-21T03:05:04;102296.0;;;17.88;100.0
62458;BME280;48509;52.122;5.250;2023-08-21T03:08:17;102296.0;;;17.86;100.0
62458;BME280;48509;52.122;5.250;2023-08-21T03:09:54;102293.0;;;17.93;100.0
62458;BME280;48509;52.122;5.250;2023-08-21T03:11:31;102297.0;;;17.88;100.0
62458;BME280;48509;52.122;5.250;2023-08-21T03:14:45;102296.0;;;17.87;100.0
62458;BME280;48509;52.122;5.250;2023-08-21T03:16:22;102298.0;;;17.84;100.0
62458;BME280;48509;52.122;5.250;2023-08-21T03:17:59;102298.0;;;17.82;100.0
62458;BME280;48509;52.122;5.250;2023-08-21T03:19:37;102296.0;;;17.77;100.0
62458;BME280;48509;52.122;5.250;2023-08-21T03:22:50;102297.0;;;17.79;100.0
62458;BME280;48509;52.122;5.250;2023-08-21T03:24:27;102298.0;;;17.86;100.0
62458;BME280;48509;52.122;5.250;2023-08-21T03:26:05;102300.0;;;17.87;100.0
62458;BME280;48509;52.122;5.250;2023-08-21T03:29:18;102299.0;;;17.91;100.0
62458;BME280;48509;52.122;5.250;2023-08-21T03:30:55;102303.0;;;17.97;100.0
62458;BME280;48509;52.122;5.250;2023-08-21T03:32:32;102305.0;;;17.96;100.0
62458;BME280;48509;52.122;5.250;2023-08-21T03:34:09;102295.0;;;17.96;100.0
62458;BME280;48509;52.122;5.250;2023-08-21T03:37:23;102292.0;;;18.0;100.0
62458;BME280;48509;52.122;5.250;2023-08-21T03:39:00;102293.0;;;18.03;100.0
62458;BME280;48509;52.122;5.250;2023-08-21T03:40:38;102292.0;;;18.03;100.0
62458;BME280;48509;52.122;5.250;2023-08-21T03:43:53;102292.0;;;18.02;100.0
62458;BME280;48509;52.122;5.250;2023-08-21T03:45:30;102294.0;;;18.05;100.0
62458;BME280;48509;52.122;5.250;2023-08-21T03:47:07;102293.0;;;18.03;100.0
62458;BME280;48509;52.122;5.250;2023-08-21T03:50:21;102294.0;;;18.05;100.0
62458;BME280;48509;52.122;5.250;2023-08-21T03:51:58;102294.0;;;18.09;100.0
62458;BME280;48509;52.122;5.250;2023-08-21T03:53:35;102288.0;;;18.09;100.0
62458;BME280;48509;52.122;5.250;2023-08-21T03:55:12;102288.0;;;18.12;100.0
62458;BME280;48509;52.122;5.250;2023-08-21T03:58:27;102292.0;;;18.12;100.0
62458;BME280;48509;52.122;5.250;2023-08-21T04:00:05;102289.0;;;18.02;100.0
62458;BME280;48509;52.122;5.250;2023-08-21T04:01:43;102291.0;;;17.98;100.0
62458;BME280;48509;52.122;5.250;2023-08-21T04:04:57;102288.0;;;17.98;100.0
62458;BME280;48509;52.122;5.250;2023-08-21T04:06:35;102291.0;;;17.96;100.0
62458;BME280;48509;52.122;5.250;2023-08-21T04:08:12;102292.0;;;18.0;100.0
62458;BME280;48509;52.122;5.250;2023-08-21T04:09:49;102296.0;;;18.02;100.0
62458;BME280;48509;52.122;5.250;2023-08-21T04:13:05;102293.0;;;18.0;100.0
62458;BME280;48509;52.122;5.250;2023-08-21T04:14:41;102295.0;;;18.12;100.0
62458;BME280;48509;52.122;5.250;2023-08-21T04:16:18;102300.0;;;18.09;100.0
62458;BME280;48509;52.122;5.250;2023-08-21T04:19:32;102300.0;;;18.11;100.0
62458;BME280;48509;52.122;5.250;2023-08-21T04:21:09;102300.0;;;18.12;100.0
62458;BME280;48509;52.122;5.250;2023-08-21T04:22:46;102305.0;;;18.06;100.0
62458;BME280;48509;52.122;5.250;2023-08-21T04:24:23;102302.0;;;18.02;100.0
62458;BME280;48509;52.122;5.250;2023-08-21T04:27:37;102299.0;;;18.02;100.0
62458;BME280;48509;52.122;5.250;2023-08-21T04:29:15;102306.0;;;18.0;100.0
62458;BME280;48509;52.122;5.250;2023-08-21T04:30:52;102301.0;;;17.97;100.0
62458;BME280;48509;52.122;5.250;2023-08-21T04:34:05;102303.0;;;17.95;100.0
62458;BME280;48509;52.122;5.250;2023-08-21T04:35:43;102308.0;;;17.93;100.0
62458;BME280;48509;52.122;5.250;2023-08-21T04:37:20;102309.0;;;17.98;100.0
62458;BME280;48509;52.122;5.250;2023-08-21T04:40:34;102308.0;;;17.91;100.0
62458;BME280;48509;52.122;5.250;2023-08-21T04:42:11;102308.0;;;17.89;100.0
62458;BME280;48509;52.122;5.250;2023-08-21T04:43:48;102307.0;;;17.88;100.0
62458;BME280;48509;52.122;5.250;2023-08-21T04:45:24;102308.0;;;17.84;100.0
62458;BME280;48509;52.122;5.250;2023-08-21T04:48:57;102305.0;;;17.86;100.0
62458;BME280;48509;52.122;5.250;2023-08-21T04:50:34;102305.0;;;17.86;100.0
62458;BME280;48509;52.122;5.250;2023-08-21T04:52:11;102302.0;;;17.84;100.0
62458;BME280;48509;52.122;5.250;2023-08-21T04:53:48;102305.0;;;17.93;100.0
62458;BME280;48509;52.122;5.250;2023-08-21T04:57:02;102309.0;;;17.96;100.0
62458;BME280;48509;52.122;5.250;2023-08-21T04:58:38;102308.0;;;17.91;100.0
62458;BME280;48509;52.122;5.250;2023-08-21T05:00:15;102306.0;;;17.98;100.0
62458;BME280;48509;52.122;5.250;2023-08-21T05:03:30;102307.0;;;17.93;100.0
62458;BME280;48509;52.122;5.250;2023-08-21T05:05:07;102316.0;;;17.91;100.0
62458;BME280;48509;52.122;5.250;2023-08-21T05:06:44;102315.0;;;17.84;100.0
62458;BME280;48509;52.122;5.250;2023-08-21T05:08:22;102317.0;;;17.84;100.0
62458;BME280;48509;52.122;5.250;2023-08-21T05:11:39;102320.0;;;17.86;100.0
62458;BME280;48509;52.122;5.250;2023-08-21T05:13:17;102318.0;;;17.88;100.0
62458;BME280;48509;52.122;5.250;2023-08-21T05:14:54;102315.0;;;17.89;100.0
62458;BME280;48509;52.122;5.250;2023-08-21T05:18:08;102321.0;;;17.96;100.0
62458;BME280;48509;52.122;5.250;2023-08-21T05:19:44;102322.0;;;17.95;100.0
62458;BME280;48509;52.122;5.250;2023-08-21T05:21:22;102316.0;;;17.97;100.0
62458;BME280;48509;52.122;5.250;2023-08-21T05:22:59;102317.0;;;17.98;100.0
62458;BME280;48509;52.122;5.250;2023-08-21T05:26:14;102316.0;;;17.96;100.0
62458;BME280;48509;52.122;5.250;2023-08-21T05:27:51;102315.0;;;18.02;100.0
62458;BME280;48509;52.122;5.250;2023-08-21T05:29:28;102320.0;;;18.0;100.0
62458;BME280;48509;52.122;5.250;2023-08-21T05:32:42;102320.0;;;18.0;100.0
62458;BME280;48509;52.122;5.250;2023-08-21T05:34:18;102324.0;;;18.02;100.0
62458;BME280;48509;52.122;5.250;2023-08-21T05:35:56;102323.0;;;18.06;100.0
62458;BME280;48509;52.122;5.250;2023-08-21T05:39:11;102321.0;;;18.09;100.0
62458;BME280;48509;52.122;5.250;2023-08-21T05:40:48;102319.0;;;18.09;100.0
62458;BME280;48509;52.122;5.250;2023-08-21T05:42:25;102326.0;;;18.11;100.0
62458;BME280;48509;52.122;5.250;2023-08-21T05:44:02;102326.0;;;18.11;100.0
62458;BME280;48509;52.122;5.250;2023-08-21T05:47:17;102326.0;;;18.16;100.0
62458;BME280;48509;52.122;5.250;2023-08-21T05:48:53;102326.0;;;18.12;100.0
62458;BME280;48509;52.122;5.250;2023-08-21T05:50:30;102332.0;;;18.09;100.0
62458;BME280;48509;52.122;5.250;2023-08-21T05:53:45;102331.0;;;18.11;100.0
62458;BME280;48509;52.122;5.250;2023-08-21T05:55:22;102331.0;;;18.11;100.0
62458;BME280;48509;52.122;5.250;2023-08-21T05:57:02;102330.0;;;18.21;100.0
62458;BME280;48509;52.122;5.250;2023-08-21T05:58:39;102334.0;;;18.25;100.0
62458;BME280;48509;52.122;5.250;2023-08-21T06:01:54;102331.0;;;18.25;100.0
62458;BME280;48509;52.122;5.250;2023-08-21T06:03:31;102331.0;;;18.29;100.0
62458;BME280;48509;52.122;5.250;2023-08-21T06:05:08;102330.0;;;18.34;100.0
62458;BME280;48509;52.122;5.250;2023-08-21T06:08:22;102330.0;;;18.36;100.0
62458;BME280;48509;52.122;5.250;2023-08-21T06:10:00;102330.0;;;18.41;100.0
62458;BME280;48509;52.122;5.250;2023-08-21T06:11:37;102332.0;;;18.47;100.0
62458;BME280;48509;52.122;5.250;2023-08-21T06:13:14;102335.0;;;18.55;100.0
62458;BME280;48509;52.122;5.250;2023-08-21T06:16:29;102336.0;;;18.68;100.0
62458;BME280;48509;52.122;5.250;2023-08-21T06:18:06;102330.0;;;18.89;100.0
62458;BME280;48509;52.122;5.250;2023-08-21T06:19:44;102331.0;;;18.88;100.0
62458;BME280;48509;52.122;5.250;2023-08-21T06:22:58;102333.0;;;18.86;100.0
62458;BME280;48509;52.122;5.250;2023-08-21T06:24:35;102331.0;;;18.88;100.0
62458;BME280;48509;52.122;5.250;2023-08-21T06:26:12;102333.0;;;18.91;100.0
62458;BME280;48509;52.122;5.250;2023-08-21T06:27:49;102334.0;;;18.91;100.0
62458;BME280;48509;52.122;5.250;2023-08-21T06:31:02;102333.0;;;18.91;100.0
62458;BME280;48509;52.122;5.250;2023-08-21T06:32:40;102333.0;;;18.93;100.0
62458;BME280;48509;52.122;5.250;2023-08-21T06:34:17;102340.0;;;18.98;100.0
62458;BME280;48509;52.122;5.250;2023-08-21T06:37:31;102340.0;;;18.98;100.0
62458;BME280;48509;52.122;5.250;2023-08-21T06:39:08;102345.0;;;19.0;100.0
62458;BME280;48509;52.122;5.250;2023-08-21T06:40:45;102343.0;;;19.05;100.0
62458;BME280;48509;52.122;5.250;2023-08-21T06:44:00;102339.0;;;19.12;100.0
62458;BME280;48509;52.122;5.250;2023-08-21T06:45:36;102344.0;;;19.16;100.0
62458;BME280;48509;52.122;5.250;2023-08-21T06:47:14;102343.0;;;19.29;100.0
62458;BME280;48509;52.122;5.250;2023-08-21T06:48:50;102340.0;;;19.34;100.0
62458;BME280;48509;52.122;5.250;2023-08-21T06:52:05;102347.0;;;19.43;100.0
62458;BME280;48509;52.122;5.250;2023-08-21T06:53:42;102339.0;;;19.46;100.0
62458;BME280;48509;52.122;5.250;2023-08-21T06:55:19;102338.0;;;19.59;100.0
62458;BME280;48509;52.122;5.250;2023-08-21T06:58:34;102337.0;;;19.61;100.0
62458;BME280;48509;52.122;5.250;2023-08-21T07:00:11;102340.0;;;19.64;100.0
62458;BME280;48509;52.122;5.250;2023-08-21T07:01:48;102342.0;;;19.77;100.0
62458;BME280;48509;52.122;5.250;2023-08-21T07:03:26;102345.0;;;19.81;100.0
62458;BME280;48509;52.122;5.250;2023-08-21T07:06:40;102343.0;;;19.91;100.0
62458;BME280;48509;52.122;5.250;2023-08-21T07:08:17;102342.0;;;19.98;100.0
62458;BME280;48509;52.122;5.250;2023-08-21T07:09:55;102341.0;;;20.02;100.0
62458;BME280;48509;52.122;5.250;2023-08-21T07:13:08;102342.0;;;20.09;100.0
62458;BME280;48509;52.122;5.250;2023-08-21T07:14:45;102340.0;;;20.16;100.0
62458;BME280;48509;52.122;5.250;2023-08-21T07:16:23;102342.0;;;20.34;100.0
62458;BME280;48509;52.122;5.250;2023-08-21T07:18:00;102345.0;;;20.34;100.0
62458;BME280;48509;52.122;5.250;2023-08-21T07:21:14;102344.0;;;20.39;100.0
62458;BME280;48509;52.122;5.250;2023-08-21T07:22:51;102347.0;;;20.64;100.0
62458;BME280;48509;52.122;5.250;2023-08-21T07:24:28;102348.0;;;20.8;100.0
62458;BME280;48509;52.122;5.250;2023-08-21T07:27:42;102351.0;;;20.85;100.0
62458;BME280;48509;52.122;5.250;2023-08-21T07:29:19;102349.0;;;20.97;100.0
62458;BME280;48509;52.122;5.250;2023-08-21T07:30:56;102349.0;;;21.12;100.0
62458;BME280;48509;52.122;5.250;2023-08-21T07:34:11;102351.0;;;21.08;100.0
62458;BME280;48509;52.122;5.250;2023-08-21T07:35:56;102351.0;;;21.18;100.0
62458;BME280;48509;52.122;5.250;2023-08-21T07:37:33;102355.0;;;21.31;100.0
62458;BME280;48509;52.122;5.250;2023-08-21T07:39:10;102358.0;;;21.5;100.0
62458;BME280;48509;52.122;5.250;2023-08-21T07:42:24;102359.0;;;21.42;100.0
62458;BME280;48509;52.122;5.250;2023-08-21T07:44:01;102369.0;;;21.54;98.39
62458;BME280;48509;52.122;5.250;2023-08-21T07:45:38;102361.0;;;21.57;98.39
62458;BME280;48509;52.122;5.250;2023-08-21T07:48:53;102363.0;;;21.65;97.58
62458;BME280;48509;52.122;5.250;2023-08-21T07:50:30;102365.0;;;21.7;97.82
62458;BME280;48509;52.122;5.250;2023-08-21T07:52:08;102365.0;;;21.76;98.72
62458;BME280;48509;52.122;5.250;2023-08-21T07:53:45;102361.0;;;21.72;99.19
62458;BME280;48509;52.122;5.250;2023-08-21T07:56:59;102363.0;;;21.86;98.88
62458;BME280;48509;52.122;5.250;2023-08-21T07:58:36;102365.0;;;21.77;98.54
62458;BME280;48509;52.122;5.250;2023-08-21T08:00:14;102371.0;;;21.82;97.59
62458;BME280;48509;52.122;5.250;2023-08-21T08:03:29;102366.0;;;22.1;95.35
62458;BME280;48509;52.122;5.250;2023-08-21T08:05:07;102362.0;;;22.09;88.96
62458;BME280;48509;52.122;5.250;2023-08-21T08:06:44;102363.0;;;22.15;89.51
62458;BME280;48509;52.122;5.250;2023-08-21T08:08:21;102367.0;;;22.21;89.62
62458;BME280;48509;52.122;5.250;2023-08-21T08:11:38;102372.0;;;22.12;83.29
62458;BME280;48509;52.122;5.250;2023-08-21T08:13:16;102371.0;;;22.13;85.38
62458;BME280;48509;52.122;5.250;2023-08-21T08:14:53;102373.0;;;22.33;83.5
62458;BME280;48509;52.122;5.250;2023-08-21T08:18:10;102380.0;;;22.32;83.43
62458;BME280;48509;52.122;5.250;2023-08-21T08:19:48;102380.0;;;22.28;85.01
62458;BME280;48509;52.122;5.250;2023-08-21T08:21:25;102386.0;;;22.41;83.61
62458;BME280;48509;52.122;5.250;2023-08-21T08:23:03;102381.0;;;22.49;83.22
62458;BME280;48509;52.122;5.250;2023-08-21T08:26:17;102375.0;;;22.59;82.98
62458;BME280;48509;52.122;5.250;2023-08-21T08:27:54;102371.0;;;22.62;82.7
62458;BME280;48509;52.122;5.250;2023-08-21T08:29:31;102371.0;;;22.69;83.32
62458;BME280;48509;52.122;5.250;2023-08-21T08:32:51;102373.0;;;22.61;82.63
62458;BME280;48509;52.122;5.250;2023-08-21T08:36:05;102369.0;;;22.8;80.84
62458;BME280;48509;52.122;5.250;2023-08-21T08:37:43;102370.0;;;22.92;81.27
62458;BME280;48509;52.122;5.250;2023-08-21T08:40:59;102374.0;;;22.9;84.17
62458;BME280;48509;52.122;5.250;2023-08-21T08:42:38;102378.0;;;22.88;81.33
62458;BME280;48509;52.122;5.250;2023-08-21T08:44:15;102383.0;;;22.86;84.52
62458;BME280;48509;52.122;5.250;2023-08-21T08:45:54;102382.0;;;22.95;79.61
62458;BME280;48509;52.122;5.250;2023-08-21T08:49:12;102383.0;;;23.14;79.91
62458;BME280;48509;52.122;5.250;2023-08-21T08:50:50;102384.0;;;23.24;79.72
62458;BME280;48509;52.122;5.250;2023-08-21T08:52:29;102380.0;;;23.06;79.97
62458;BME280;48509;52.122;5.250;2023-08-21T08:55:48;102377.0;;;23.2;80.06
62458;BME280;48509;52.122;5.250;2023-08-21T08:57:25;102376.0;;;23.25;79.28
62458;BME280;48509;52.122;5.250;2023-08-21T08:59:02;102372.0;;;23.29;78.69
62458;BME280;48509;52.122;5.250;2023-08-21T09:00:40;102374.0;;;23.33;79.28
62458;BME280;48509;52.122;5.250;2023-08-21T09:03:54;102373.0;;;23.48;78.53
62458;BME280;48509;52.122;5.250;2023-08-21T09:05:33;102367.0;;;23.63;77.05
62458;BME280;48509;52.122;5.250;2023-08-21T09:07:11;102362.0;;;23.66;74.8
62458;BME280;48509;52.122;5.250;2023-08-21T09:10:34;102365.0;;;23.66;76.23
62458;BME280;48509;52.122;5.250;2023-08-21T09:12:14;102364.0;;;23.6;76.11
62458;BME280;48509;52.122;5.250;2023-08-21T09:13:52;102361.0;;;23.63;73.67
62458;BME280;48509;52.122;5.250;2023-08-21T09:15:30;102364.0;;;23.55;74.34
62458;BME280;48509;52.122;5.250;2023-08-21T09:18:47;102364.0;;;23.8;75.58
62458;BME280;48509;52.122;5.250;2023-08-21T09:20:24;102367.0;;;23.87;75.45
62458;BME280;48509;52.122;5.250;2023-08-21T09:22:07;102365.0;;;23.85;74.83
62458;BME280;48509;52.122;5.250;2023-08-21T09:23:48;102368.0;;;23.9;74.8
62458;BME280;48509;52.122;5.250;2023-08-21T09:27:04;102366.0;;;23.96;72.7
62458;BME280;48509;52.122;5.250;2023-08-21T09:28:51;102364.0;;;23.97;73.83
62458;BME280;48509;52.122;5.250;2023-08-21T09:30:28;102365.0;;;23.96;73.73
62458;BME280;48509;52.122;5.250;2023-08-21T09:32:05;102368.0;;;23.81;72.42
62458;BME280;48509;52.122;5.250;2023-08-21T09:35:19;102365.0;;;23.96;71.74
62458;BME280;48509;52.122;5.250;2023-08-21T09:36:57;102365.0;;;24.08;72.33
62458;BME280;48509;52.122;5.250;2023-08-21T09:38:35;102359.0;;;24.02;72.69
62458;BME280;48509;52.122;5.250;2023-08-21T09:40:15;102363.0;;;24.11;72.37
62458;BME280;48509;52.122;5.250;2023-08-21T09:43:41;102359.0;;;23.95;71.19
62458;BME280;48509;52.122;5.250;2023-08-21T09:45:20;102357.0;;;24.14;73.3
62458;BME280;48509;52.122;5.250;2023-08-21T09:46:57;102357.0;;;24.32;72.83
62458;BME280;48509;52.122;5.250;2023-08-21T09:50:12;102352.0;;;24.39;71.25
62458;BME280;48509;52.122;5.250;2023-08-21T09:51:49;102352.0;;;24.27;70.75
62458;BME280;48509;52.122;5.250;2023-08-21T09:53:29;102348.0;;;24.31;70.08
62458;BME280;48509;52.122;5.250;2023-08-21T09:55:06;102348.0;;;24.18;70.98
62458;BME280;48509;52.122;5.250;2023-08-21T09:58:23;102346.0;;;24.06;71.08
62458;BME280;48509;52.122;5.250;2023-08-21T10:00:02;102345.0;;;24.13;70.53
62458;BME280;48509;52.122;5.250;2023-08-21T10:01:40;102344.0;;;24.14;68.67
62458;BME280;48509;52.122;5.250;2023-08-21T10:03:20;102345.0;;;24.24;70.94
62458;BME280;48509;52.122;5.250;2023-08-21T10:06:36;102347.0;;;24.17;71.92
62458;BME280;48509;52.122;5.250;2023-08-21T10:08:16;102342.0;;;24.41;70.87
62458;BME280;48509;52.122;5.250;2023-08-21T10:09:55;102344.0;;;24.6;70.44
62458;BME280;48509;52.122;5.250;2023-08-21T10:13:11;102343.0;;;24.61;67.55
62458;BME280;48509;52.122;5.250;2023-08-21T10:14:47;102338.0;;;24.71;68.36
62458;BME280;48509;52.122;5.250;2023-08-21T10:16:25;102333.0;;;24.8;71.91
62458;BME280;48509;52.122;5.250;2023-08-21T10:18:17;102333.0;;;24.75;68.39
62458;BME280;48509;52.122;5.250;2023-08-21T10:21:35;102334.0;;;24.73;67.69
62458;BME280;48509;52.122;5.250;2023-08-21T10:23:24;102330.0;;;24.77;68.61
62458;BME280;48509;52.122;5.250;2023-08-21T10:25:01;102328.0;;;24.93;68.74
62458;BME280;48509;52.122;5.250;2023-08-21T10:26:39;102336.0;;;24.99;67.62
62458;BME280;48509;52.122;5.250;2023-08-21T10:29:56;102335.0;;;25.05;65.94
62458;BME280;48509;52.122;5.250;2023-08-21T10:31:35;102339.0;;;25.18;67.5
62458;BME280;48509;52.122;5.250;2023-08-21T10:33:12;102336.0;;;25.31;67.41
62458;BME280;48509;52.122;5.250;2023-08-21T10:34:51;102339.0;;;25.45;69.28
62458;BME280;48509;52.122;5.250;2023-08-21T10:39:13;102344.0;;;25.38;65.19
62458;BME280;48509;52.122;5.250;2023-08-21T10:42:43;102350.0;;;25.31;67.33
62458;BME280;48509;52.122;5.250;2023-08-21T10:44:34;102347.0;;;25.4;65.56
62458;BME280;48509;52.122;5.250;2023-08-21T10:46:49;102339.0;;;25.36;64.66
62458;BME280;48509;52.122;5.250;2023-08-21T10:48:26;102343.0;;;25.28;64.58
62458;BME280;48509;52.122;5.250;2023-08-21T10:50:05;102342.0;;;25.42;65.52
62458;BME280;48509;52.122;5.250;2023-08-21T10:51:43;102343.0;;;25.19;67.66
62458;BME280;48509;52.122;5.250;2023-08-21T10:55:01;102342.0;;;25.06;63.49
62458;BME280;48509;52.122;5.250;2023-08-21T10:56:39;102335.0;;;24.91;62.98
62458;BME280;48509;52.122;5.250;2023-08-21T10:58:16;102337.0;;;24.96;64.94
62458;BME280;48509;52.122;5.250;2023-08-21T10:59:55;102333.0;;;25.0;62.81
62458;BME280;48509;52.122;5.250;2023-08-21T11:03:25;102330.0;;;25.08;62.6
62458;BME280;48509;52.122;5.250;2023-08-21T11:05:02;102333.0;;;25.07;64.72
62458;BME280;48509;52.122;5.250;2023-08-21T11:06:39;102337.0;;;25.22;61.51
62458;BME280;48509;52.122;5.250;2023-08-21T11:08:18;102338.0;;;25.3;62.15
62458;BME280;48509;52.122;5.250;2023-08-21T11:11:34;102340.0;;;25.41;63.06
62458;BME280;48509;52.122;5.250;2023-08-21T11:13:11;102330.0;;;25.41;60.62